sensor_id;sensor_type;location;lat;lon;timestamp;P1;durP1;ratioP1;P2;durP2;ratioP2
75760;SDS011;64373;46.136;8.830;2024-03-08T00:02:14;3.72;;;2.78;;
75760;SDS011;64373;46.136;8.830;2024-03-08T00:04:40;5.32;;;2.97;;
75760;SDS011;64373;46.136;8.830;2024-03-08T00:07:05;4.32;;;3.10;;
75760;SDS011;64373;46.136;8.830;2024-03-08T00:09:32;4.85;;;3.20;;
75760;SDS011;64373;46.136;8.830;2024-03-08T00:11:57;4.47;;;3.15;;
75760;SDS011;64373;46.136;8.830;2024-03-08T00:14:23;4.97;;;3.35;;
75760;SDS011;64373;46.136;8.830;2024-03-08T00:16:49;6.10;;;4.05;;
75760;SDS011;64373;46.136;8.830;2024-03-08T00:19:14;6.60;;;3.40;;
75760;SDS011;64373;46.136;8.830;2024-03-08T00:21:40;5.35;;;3.60;;
75760;SDS011;64373;46.136;8.830;2024-03-08T00:24:06;5.85;;;3.35;;
75760;SDS011;64373;46.136;8.830;2024-03-08T00:26:32;6.20;;;4.05;;
75760;SDS011;64373;46.136;8.830;2024-03-08T00:28:58;6.97;;;3.70;;
75760;SDS011;64373;46.136;8.830;2024-03-08T00:31:23;5.68;;;4.00;;
75760;SDS011;64373;46.136;8.830;2024-03-08T00:33:50;6.70;;;4.15;;
75760;SDS011;64373;46.136;8.830;2024-03-08T00:36:16;5.65;;;3.80;;
75760;SDS011;64373;46.136;8.830;2024-03-08T00:38:41;7.85;;;3.97;;
75760;SDS011;64373;46.136;8.830;2024-03-08T00:41:07;10.43;;;4.28;;
75760;SDS011;64373;46.136;8.830;2024-03-08T00:43:32;7.90;;;3.97;;
75760;SDS011;64373;46.136;8.830;2024-03-08T00:45:58;6.45;;;4.28;;
75760;SDS011;64373;46.136;8.830;2024-03-08T00:48:23;6.05;;;4.07;;
75760;SDS011;64373;46.136;8.830;2024-03-08T00:50:49;6.20;;;3.75;;
75760;SDS011;64373;46.136;8.830;2024-03-08T00:53:15;9.68;;;4.80;;
75760;SDS011;64373;46.136;8.830;2024-03-08T00:55:40;8.60;;;4.90;;
75760;SDS011;64373;46.136;8.830;2024-03-08T00:58:06;9.80;;;4.90;;
75760;SDS011;64373;46.136;8.830;2024-03-08T01:00:31;9.90;;;5.07;;
75760;SDS011;64373;46.136;8.830;2024-03-08T01:02:56;9.43;;;5.70;;
75760;SDS011;64373;46.136;8.830;2024-03-08T01:05:22;9.82;;;5.35;;
75760;SDS011;64373;46.136;8.830;2024-03-08T01:07:49;11.32;;;5.50;;
75760;SDS011;64373;46.136;8.830;2024-03-08T01:10:15;8.35;;;5.88;;
75760;SDS011;64373;46.136;8.830;2024-03-08T01:12:41;9.68;;;6.15;;
75760;SDS011;64373;46.136;8.830;2024-03-08T01:15:08;10.00;;;6.15;;
75760;SDS011;64373;46.136;8.830;2024-03-08T01:17:35;10.82;;;6.47;;
75760;SDS011;64373;46.136;8.830;2024-03-08T01:20:02;12.25;;;6.32;;
75760;SDS011;64373;46.136;8.830;2024-03-08T01:22:28;11.90;;;6.05;;
75760;SDS011;64373;46.136;8.830;2024-03-08T01:24:55;10.88;;;6.47;;
75760;SDS011;64373;46.136;8.830;2024-03-08T01:27:21;11.95;;;6.53;;
75760;SDS011;64373;46.136;8.830;2024-03-08T01:29:46;11.77;;;7.22;;
75760;SDS011;64373;46.136;8.830;2024-03-08T01:32:12;14.25;;;7.25;;
75760;SDS011;64373;46.136;8.830;2024-03-08T01:34:37;13.30;;;6.78;;
75760;SDS011;64373;46.136;8.830;2024-03-08T01:37:03;10.77;;;6.45;;
75760;SDS011;64373;46.136;8.830;2024-03-08T01:39:28;11.73;;;7.13;;
75760;SDS011;64373;46.136;8.830;2024-03-08T01:41:54;14.50;;;8.82;;
75760;SDS011;64373;46.136;8.830;2024-03-08T01:44:20;14.85;;;8.45;;
75760;SDS011;64373;46.136;8.830;2024-03-08T01:46:46;15.13;;;8.27;;
75760;SDS011;64373;46.136;8.830;2024-03-08T01:49:13;14.60;;;8.00;;
75760;SDS011;64373;46.136;8.830;2024-03-08T01:51:39;18.95;;;8.75;;
75760;SDS011;64373;46.136;8.830;2024-03-08T01:54:05;12.57;;;7.78;;
75760;SDS011;64373;46.136;8.830;2024-03-08T01:56:32;12.43;;;7.72;;
75760;SDS011;64373;46.136;8.830;2024-03-08T01:58:58;13.90;;;7.65;;
75760;SDS011;64373;46.136;8.830;2024-03-08T02:01:25;15.23;;;7.88;;
75760;SDS011;64373;46.136;8.830;2024-03-08T02:03:50;12.35;;;7.43;;
75760;SDS011;64373;46.136;8.830;2024-03-08T02:06:16;13.82;;;7.70;;
75760;SDS011;64373;46.136;8.830;2024-03-08T02:08:42;14.90;;;7.55;;
75760;SDS011;64373;46.136;8.830;2024-03-08T02:11:11;16.60;;;8.25;;
75760;SDS011;64373;46.136;8.830;2024-03-08T02:13:37;11.10;;;6.93;;
75760;SDS011;64373;46.136;8.830;2024-03-08T02:16:03;12.00;;;6.90;;
75760;SDS011;64373;46.136;8.830;2024-03-08T02:18:30;13.05;;;6.18;;
75760;SDS011;64373;46.136;8.830;2024-03-08T02:20:56;10.95;;;6.22;;
75760;SDS011;64373;46.136;8.830;2024-03-08T02:23:23;12.35;;;7.00;;
75760;SDS011;64373;46.136;8.830;2024-03-08T02:25:50;13.48;;;6.95;;
75760;SDS011;64373;46.136;8.830;2024-03-08T02:28:16;12.32;;;6.32;;
75760;SDS011;64373;46.136;8.830;2024-03-08T02:30:44;11.52;;;6.70;;
75760;SDS011;64373;46.136;8.830;2024-03-08T02:33:13;12.73;;;7.45;;
75760;SDS011;64373;46.136;8.830;2024-03-08T02:35:41;11.88;;;7.35;;
75760;SDS011;64373;46.136;8.830;2024-03-08T02:38:07;12.98;;;7.68;;
75760;SDS011;64373;46.136;8.830;2024-03-08T02:40:33;14.85;;;7.97;;
75760;SDS011;64373;46.136;8.830;2024-03-08T02:42:58;12.98;;;7.78;;
75760;SDS011;64373;46.136;8.830;2024-03-08T02:45:24;15.50;;;8.25;;
75760;SDS011;64373;46.136;8.830;2024-03-08T02:47:49;13.65;;;7.35;;
75760;SDS011;64373;46.136;8.830;2024-03-08T02:50:15;13.20;;;7.80;;
75760;SDS011;64373;46.136;8.830;2024-03-08T02:52:41;13.40;;;8.88;;
75760;SDS011;64373;46.136;8.830;2024-03-08T02:55:07;12.85;;;7.43;;
75760;SDS011;64373;46.136;8.830;2024-03-08T02:57:35;16.08;;;8.18;;
75760;SDS011;64373;46.136;8.830;2024-03-08T03:00:01;11.05;;;6.43;;
75760;SDS011;64373;46.136;8.830;2024-03-08T03:02:28;9.82;;;6.47;;
75760;SDS011;64373;46.136;8.830;2024-03-08T03:04:54;12.25;;;7.57;;
75760;SDS011;64373;46.136;8.830;2024-03-08T03:07:21;13.30;;;8.02;;
75760;SDS011;64373;46.136;8.830;2024-03-08T03:09:47;18.52;;;8.77;;
75760;SDS011;64373;46.136;8.830;2024-03-08T03:12:12;17.73;;;8.40;;
75760;SDS011;64373;46.136;8.830;2024-03-08T03:14:39;16.55;;;9.23;;
75760;SDS011;64373;46.136;8.830;2024-03-08T03:17:04;16.48;;;9.07;;
75760;SDS011;64373;46.136;8.830;2024-03-08T03:19:30;14.10;;;7.85;;
75760;SDS011;64373;46.136;8.830;2024-03-08T03:21:56;16.42;;;8.82;;
75760;SDS011;64373;46.136;8.830;2024-03-08T03:24:22;16.13;;;8.73;;
75760;SDS011;64373;46.136;8.830;2024-03-08T03:26:48;15.38;;;8.90;;
75760;SDS011;64373;46.136;8.830;2024-03-08T03:29:14;15.25;;;8.55;;
75760;SDS011;64373;46.136;8.830;2024-03-08T03:31:42;15.60;;;9.38;;
75760;SDS011;64373;46.136;8.830;2024-03-08T03:34:11;18.13;;;9.00;;
75760;SDS011;64373;46.136;8.830;2024-03-08T03:36:37;14.25;;;8.95;;
75760;SDS011;64373;46.136;8.830;2024-03-08T03:39:07;18.92;;;9.73;;
75760;SDS011;64373;46.136;8.830;2024-03-08T03:41:41;19.13;;;9.63;;
75760;SDS011;64373;46.136;8.830;2024-03-08T03:44:10;16.75;;;9.63;;
75760;SDS011;64373;46.136;8.830;2024-03-08T03:46:41;19.55;;;10.13;;
75760;SDS011;64373;46.136;8.830;2024-03-08T03:49:10;18.60;;;9.98;;
75760;SDS011;64373;46.136;8.830;2024-03-08T03:51:36;17.23;;;10.52;;
75760;SDS011;64373;46.136;8.830;2024-03-08T03:54:02;21.95;;;10.85;;
75760;SDS011;64373;46.136;8.830;2024-03-08T03:56:29;18.95;;;10.32;;
75760;SDS011;64373;46.136;8.830;2024-03-08T03:58:56;17.33;;;10.07;;
75760;SDS011;64373;46.136;8.830;2024-03-08T04:01:22;17.15;;;10.05;;
75760;SDS011;64373;46.136;8.830;2024-03-08T04:03:49;19.10;;;9.93;;
75760;SDS011;64373;46.136;8.830;2024-03-08T04:06:14;16.27;;;9.43;;
75760;SDS011;64373;46.136;8.830;2024-03-08T04:08:40;17.75;;;10.43;;
75760;SDS011;64373;46.136;8.830;2024-03-08T04:11:06;19.15;;;10.40;;
75760;SDS011;64373;46.136;8.830;2024-03-08T04:13:33;20.42;;;10.35;;
75760;SDS011;64373;46.136;8.830;2024-03-08T04:15:59;19.40;;;12.02;;
75760;SDS011;64373;46.136;8.830;2024-03-08T04:18:25;18.85;;;11.48;;
75760;SDS011;64373;46.136;8.830;2024-03-08T04:20:51;23.35;;;12.15;;
75760;SDS011;64373;46.136;8.830;2024-03-08T04:23:16;23.52;;;12.55;;
75760;SDS011;64373;46.136;8.830;2024-03-08T04:25:43;19.98;;;11.00;;
75760;SDS011;64373;46.136;8.830;2024-03-08T04:28:09;20.98;;;11.43;;
75760;SDS011;64373;46.136;8.830;2024-03-08T04:30:38;21.40;;;11.20;;
75760;SDS011;64373;46.136;8.830;2024-03-08T04:33:04;20.63;;;11.55;;
75760;SDS011;64373;46.136;8.830;2024-03-08T04:35:31;23.65;;;12.18;;
75760;SDS011;64373;46.136;8.830;2024-03-08T04:37:57;27.17;;;13.48;;
75760;SDS011;64373;46.136;8.830;2024-03-08T04:40:23;21.48;;;12.32;;
75760;SDS011;64373;46.136;8.830;2024-03-08T04:42:49;22.52;;;11.82;;
75760;SDS011;64373;46.136;8.830;2024-03-08T04:45:16;20.50;;;11.70;;
75760;SDS011;64373;46.136;8.830;2024-03-08T04:47:42;18.50;;;10.30;;
75760;SDS011;64373;46.136;8.830;2024-03-08T04:50:07;23.23;;;12.43;;
75760;SDS011;64373;46.136;8.830;2024-03-08T04:52:36;18.08;;;10.30;;
75760;SDS011;64373;46.136;8.830;2024-03-08T04:55:02;26.85;;;13.52;;
75760;SDS011;64373;46.136;8.830;2024-03-08T04:57:30;25.15;;;14.38;;
75760;SDS011;64373;46.136;8.830;2024-03-08T04:59:55;22.88;;;13.07;;
75760;SDS011;64373;46.136;8.830;2024-03-08T05:02:21;23.75;;;14.02;;
75760;SDS011;64373;46.136;8.830;2024-03-08T05:04:48;24.85;;;14.05;;
75760;SDS011;64373;46.136;8.830;2024-03-08T05:07:13;24.00;;;13.93;;
75760;SDS011;64373;46.136;8.830;2024-03-08T05:09:39;22.48;;;13.32;;
75760;SDS011;64373;46.136;8.830;2024-03-08T05:12:06;26.45;;;14.93;;
75760;SDS011;64373;46.136;8.830;2024-03-08T05:14:33;28.58;;;15.18;;
75760;SDS011;64373;46.136;8.830;2024-03-08T05:17:00;26.65;;;14.48;;
75760;SDS011;64373;46.136;8.830;2024-03-08T05:19:26;27.65;;;13.85;;
75760;SDS011;64373;46.136;8.830;2024-03-08T05:21:51;25.90;;;14.35;;
75760;SDS011;64373;46.136;8.830;2024-03-08T05:24:18;25.90;;;15.20;;
75760;SDS011;64373;46.136;8.830;2024-03-08T05:26:43;22.33;;;13.77;;
75760;SDS011;64373;46.136;8.830;2024-03-08T05:29:09;28.38;;;14.32;;
75760;SDS011;64373;46.136;8.830;2024-03-08T05:31:42;24.23;;;13.85;;
75760;SDS011;64373;46.136;8.830;2024-03-08T05:34:11;26.95;;;14.38;;
75760;SDS011;64373;46.136;8.830;2024-03-08T05:36:40;26.25;;;14.60;;
75760;SDS011;64373;46.136;8.830;2024-03-08T05:39:08;24.98;;;14.52;;
75760;SDS011;64373;46.136;8.830;2024-03-08T05:41:36;30.88;;;15.98;;
75760;SDS011;64373;46.136;8.830;2024-03-08T05:44:02;29.25;;;16.10;;
75760;SDS011;64373;46.136;8.830;2024-03-08T05:46:27;26.88;;;15.52;;
75760;SDS011;64373;46.136;8.830;2024-03-08T05:48:53;33.50;;;16.63;;
75760;SDS011;64373;46.136;8.830;2024-03-08T05:51:19;30.70;;;17.25;;
75760;SDS011;64373;46.136;8.830;2024-03-08T05:53:46;36.20;;;18.08;;
75760;SDS011;64373;46.136;8.830;2024-03-08T05:56:12;37.55;;;17.95;;
75760;SDS011;64373;46.136;8.830;2024-03-08T05:58:37;36.40;;;18.20;;
75760;SDS011;64373;46.136;8.830;2024-03-08T06:01:03;35.60;;;17.90;;
75760;SDS011;64373;46.136;8.830;2024-03-08T06:03:47;35.42;;;16.55;;
75760;SDS011;64373;46.136;8.830;2024-03-08T06:06:14;30.70;;;15.77;;
75760;SDS011;64373;46.136;8.830;2024-03-08T06:08:40;37.53;;;17.73;;
75760;SDS011;64373;46.136;8.830;2024-03-08T06:11:08;38.50;;;18.30;;
75760;SDS011;64373;46.136;8.830;2024-03-08T06:13:34;45.03;;;19.65;;
75760;SDS011;64373;46.136;8.830;2024-03-08T06:16:00;37.08;;;17.23;;
75760;SDS011;64373;46.136;8.830;2024-03-08T06:18:29;36.60;;;19.15;;
75760;SDS011;64373;46.136;8.830;2024-03-08T06:20:55;38.95;;;18.73;;
75760;SDS011;64373;46.136;8.830;2024-03-08T06:23:21;40.50;;;17.83;;
75760;SDS011;64373;46.136;8.830;2024-03-08T06:25:47;37.05;;;18.95;;
75760;SDS011;64373;46.136;8.830;2024-03-08T06:28:13;35.88;;;18.50;;
75760;SDS011;64373;46.136;8.830;2024-03-08T06:30:39;33.90;;;16.80;;
75760;SDS011;64373;46.136;8.830;2024-03-08T06:33:05;34.90;;;16.95;;
75760;SDS011;64373;46.136;8.830;2024-03-08T06:35:30;37.10;;;16.27;;
75760;SDS011;64373;46.136;8.830;2024-03-08T06:37:57;31.50;;;15.18;;
75760;SDS011;64373;46.136;8.830;2024-03-08T06:40:23;37.42;;;15.75;;
75760;SDS011;64373;46.136;8.830;2024-03-08T06:42:49;32.83;;;15.52;;
75760;SDS011;64373;46.136;8.830;2024-03-08T06:45:17;31.20;;;14.57;;
75760;SDS011;64373;46.136;8.830;2024-03-08T06:47:46;33.45;;;16.17;;
75760;SDS011;64373;46.136;8.830;2024-03-08T06:50:12;27.42;;;13.77;;
75760;SDS011;64373;46.136;8.830;2024-03-08T06:52:40;31.75;;;16.00;;
75760;SDS011;64373;46.136;8.830;2024-03-08T06:55:08;28.67;;;14.73;;
75760;SDS011;64373;46.136;8.830;2024-03-08T06:57:38;32.33;;;14.73;;
75760;SDS011;64373;46.136;8.830;2024-03-08T07:00:06;28.48;;;13.55;;
75760;SDS011;64373;46.136;8.830;2024-03-08T07:02:35;29.63;;;13.85;;
75760;SDS011;64373;46.136;8.830;2024-03-08T07:05:00;27.38;;;13.65;;
75760;SDS011;64373;46.136;8.830;2024-03-08T07:07:26;34.10;;;17.27;;
75760;SDS011;64373;46.136;8.830;2024-03-08T07:09:52;33.25;;;16.50;;
75760;SDS011;64373;46.136;8.830;2024-03-08T07:12:19;31.33;;;14.45;;
75760;SDS011;64373;46.136;8.830;2024-03-08T07:14:46;35.53;;;17.40;;
75760;SDS011;64373;46.136;8.830;2024-03-08T07:17:12;32.78;;;16.77;;
75760;SDS011;64373;46.136;8.830;2024-03-08T07:19:37;33.08;;;16.65;;
75760;SDS011;64373;46.136;8.830;2024-03-08T07:22:03;32.13;;;16.77;;
75760;SDS011;64373;46.136;8.830;2024-03-08T07:24:33;29.67;;;14.68;;
75760;SDS011;64373;46.136;8.830;2024-03-08T07:27:03;27.35;;;14.27;;
75760;SDS011;64373;46.136;8.830;2024-03-08T07:29:30;21.65;;;11.63;;
75760;SDS011;64373;46.136;8.830;2024-03-08T07:31:56;26.98;;;13.20;;
75760;SDS011;64373;46.136;8.830;2024-03-08T07:34:37;28.45;;;12.88;;
75760;SDS011;64373;46.136;8.830;2024-03-08T07:37:05;30.15;;;13.50;;
75760;SDS011;64373;46.136;8.830;2024-03-08T07:39:35;29.80;;;14.98;;
75760;SDS011;64373;46.136;8.830;2024-03-08T07:42:02;27.67;;;13.93;;
75760;SDS011;64373;46.136;8.830;2024-03-08T07:44:27;35.08;;;14.43;;
75760;SDS011;64373;46.136;8.830;2024-03-08T07:46:54;31.67;;;14.68;;
75760;SDS011;64373;46.136;8.830;2024-03-08T07:49:20;30.77;;;14.23;;
75760;SDS011;64373;46.136;8.830;2024-03-08T07:51:45;31.48;;;14.57;;
75760;SDS011;64373;46.136;8.830;2024-03-08T07:54:11;27.27;;;13.18;;
75760;SDS011;64373;46.136;8.830;2024-03-08T07:56:36;27.00;;;12.88;;
75760;SDS011;64373;46.136;8.830;2024-03-08T07:59:02;29.30;;;13.68;;
75760;SDS011;64373;46.136;8.830;2024-03-08T08:01:29;27.75;;;12.88;;
75760;SDS011;64373;46.136;8.830;2024-03-08T08:03:55;29.85;;;15.15;;
75760;SDS011;64373;46.136;8.830;2024-03-08T08:06:22;28.77;;;13.82;;
75760;SDS011;64373;46.136;8.830;2024-03-08T08:08:48;25.95;;;14.15;;
75760;SDS011;64373;46.136;8.830;2024-03-08T08:11:14;27.83;;;13.88;;
75760;SDS011;64373;46.136;8.830;2024-03-08T08:13:41;29.35;;;15.50;;
75760;SDS011;64373;46.136;8.830;2024-03-08T08:16:08;27.52;;;14.40;;
75760;SDS011;64373;46.136;8.830;2024-03-08T08:18:34;25.38;;;14.27;;
75760;SDS011;64373;46.136;8.830;2024-03-08T08:21:00;27.95;;;14.70;;
75760;SDS011;64373;46.136;8.830;2024-03-08T08:23:26;30.75;;;15.10;;
75760;SDS011;64373;46.136;8.830;2024-03-08T08:25:52;30.05;;;16.42;;
75760;SDS011;64373;46.136;8.830;2024-03-08T08:28:17;27.52;;;14.70;;
75760;SDS011;64373;46.136;8.830;2024-03-08T08:30:47;25.30;;;14.20;;
75760;SDS011;64373;46.136;8.830;2024-03-08T08:33:14;26.23;;;13.75;;
75760;SDS011;64373;46.136;8.830;2024-03-08T08:35:40;25.27;;;12.50;;
75760;SDS011;64373;46.136;8.830;2024-03-08T08:38:05;28.70;;;13.40;;
75760;SDS011;64373;46.136;8.830;2024-03-08T08:40:32;24.48;;;13.25;;
75760;SDS011;64373;46.136;8.830;2024-03-08T08:42:59;23.42;;;12.30;;
75760;SDS011;64373;46.136;8.830;2024-03-08T08:45:24;21.58;;;11.30;;
75760;SDS011;64373;46.136;8.830;2024-03-08T08:47:50;22.25;;;10.75;;
75760;SDS011;64373;46.136;8.830;2024-03-08T08:50:17;19.98;;;10.15;;
75760;SDS011;64373;46.136;8.830;2024-03-08T08:52:48;22.77;;;11.77;;
75760;SDS011;64373;46.136;8.830;2024-03-08T08:55:14;23.67;;;11.90;;
75760;SDS011;64373;46.136;8.830;2024-03-08T08:57:40;28.27;;;14.35;;
75760;SDS011;64373;46.136;8.830;2024-03-08T09:00:06;25.88;;;13.80;;
75760;SDS011;64373;46.136;8.830;2024-03-08T09:02:33;24.25;;;13.07;;
75760;SDS011;64373;46.136;8.830;2024-03-08T09:04:59;22.90;;;13.20;;
75760;SDS011;64373;46.136;8.830;2024-03-08T09:07:26;28.40;;;14.15;;
75760;SDS011;64373;46.136;8.830;2024-03-08T09:09:53;27.73;;;14.85;;
75760;SDS011;64373;46.136;8.830;2024-03-08T09:12:22;27.33;;;15.13;;
75760;SDS011;64373;46.136;8.830;2024-03-08T09:14:48;29.38;;;15.45;;
75760;SDS011;64373;46.136;8.830;2024-03-08T09:17:14;31.67;;;16.33;;
75760;SDS011;64373;46.136;8.830;2024-03-08T09:19:45;38.53;;;18.35;;
75760;SDS011;64373;46.136;8.830;2024-03-08T09:22:10;36.10;;;17.92;;
75760;SDS011;64373;46.136;8.830;2024-03-08T09:24:36;38.55;;;19.55;;
75760;SDS011;64373;46.136;8.830;2024-03-08T09:27:01;40.15;;;20.73;;
75760;SDS011;64373;46.136;8.830;2024-03-08T09:29:28;38.88;;;19.65;;
75760;SDS011;64373;46.136;8.830;2024-03-08T09:31:53;40.00;;;20.38;;
75760;SDS011;64373;46.136;8.830;2024-03-08T09:34:19;38.78;;;20.08;;
75760;SDS011;64373;46.136;8.830;2024-03-08T09:36:44;38.30;;;21.15;;
75760;SDS011;64373;46.136;8.830;2024-03-08T09:39:10;40.97;;;20.50;;
75760;SDS011;64373;46.136;8.830;2024-03-08T09:41:42;37.13;;;18.63;;
75760;SDS011;64373;46.136;8.830;2024-03-08T09:44:13;37.15;;;19.55;;
75760;SDS011;64373;46.136;8.830;2024-03-08T09:46:39;32.65;;;17.23;;
75760;SDS011;64373;46.136;8.830;2024-03-08T09:49:08;32.28;;;16.65;;
75760;SDS011;64373;46.136;8.830;2024-03-08T09:51:36;37.03;;;19.17;;
75760;SDS011;64373;46.136;8.830;2024-03-08T09:54:05;34.33;;;18.40;;
75760;SDS011;64373;46.136;8.830;2024-03-08T09:56:33;38.05;;;18.50;;
75760;SDS011;64373;46.136;8.830;2024-03-08T09:59:00;38.67;;;19.77;;
75760;SDS011;64373;46.136;8.830;2024-03-08T10:01:49;33.70;;;17.67;;
75760;SDS011;64373;46.136;8.830;2024-03-08T10:04:16;31.52;;;16.60;;
75760;SDS011;64373;46.136;8.830;2024-03-08T10:06:42;34.00;;;16.85;;
75760;SDS011;64373;46.136;8.830;2024-03-08T10:09:08;31.52;;;17.35;;
75760;SDS011;64373;46.136;8.830;2024-03-08T10:11:35;30.23;;;16.90;;
75760;SDS011;64373;46.136;8.830;2024-03-08T10:14:01;38.38;;;17.65;;
75760;SDS011;64373;46.136;8.830;2024-03-08T10:16:29;37.03;;;18.98;;
75760;SDS011;64373;46.136;8.830;2024-03-08T10:18:58;35.47;;;17.98;;
75760;SDS011;64373;46.136;8.830;2024-03-08T10:21:25;34.55;;;18.17;;
75760;SDS011;64373;46.136;8.830;2024-03-08T10:23:51;34.10;;;18.48;;
75760;SDS011;64373;46.136;8.830;2024-03-08T10:26:16;31.38;;;17.70;;
75760;SDS011;64373;46.136;8.830;2024-03-08T10:28:47;34.30;;;17.08;;
75760;SDS011;64373;46.136;8.830;2024-03-08T10:31:14;36.10;;;19.05;;
75760;SDS011;64373;46.136;8.830;2024-03-08T10:33:40;31.92;;;17.95;;
75760;SDS011;64373;46.136;8.830;2024-03-08T10:36:09;35.20;;;17.30;;
75760;SDS011;64373;46.136;8.830;2024-03-08T10:38:39;35.00;;;17.95;;
75760;SDS011;64373;46.136;8.830;2024-03-08T10:41:06;32.03;;;18.60;;
75760;SDS011;64373;46.136;8.830;2024-03-08T10:43:46;38.17;;;18.58;;
75760;SDS011;64373;46.136;8.830;2024-03-08T10:49:12;35.20;;;17.88;;
75760;SDS011;64373;46.136;8.830;2024-03-08T10:51:42;37.20;;;18.80;;
75760;SDS011;64373;46.136;8.830;2024-03-08T10:54:09;37.15;;;18.10;;
75760;SDS011;64373;46.136;8.830;2024-03-08T10:56:35;34.67;;;18.70;;
75760;SDS011;64373;46.136;8.830;2024-03-08T10:59:01;33.88;;;18.00;;
75760;SDS011;64373;46.136;8.830;2024-03-08T11:01:29;35.83;;;17.33;;
75760;SDS011;64373;46.136;8.830;2024-03-08T11:03:55;33.75;;;18.05;;
75760;SDS011;64373;46.136;8.830;2024-03-08T11:06:41;35.35;;;19.13;;
75760;SDS011;64373;46.136;8.830;2024-03-08T11:14:45;35.65;;;18.48;;
75760;SDS011;64373;46.136;8.830;2024-03-08T11:19:56;34.83;;;18.40;;
75760;SDS011;64373;46.136;8.830;2024-03-08T11:22:23;34.75;;;17.98;;
75760;SDS011;64373;46.136;8.830;2024-03-08T11:24:52;35.70;;;18.27;;
75760;SDS011;64373;46.136;8.830;2024-03-08T11:27:18;33.75;;;17.60;;
75760;SDS011;64373;46.136;8.830;2024-03-08T11:29:53;35.30;;;18.65;;
75760;SDS011;64373;46.136;8.830;2024-03-08T11:32:27;36.30;;;19.25;;
75760;SDS011;64373;46.136;8.830;2024-03-08T11:34:53;34.50;;;18.55;;
75760;SDS011;64373;46.136;8.830;2024-03-08T11:37:19;35.50;;;17.88;;
75760;SDS011;64373;46.136;8.830;2024-03-08T11:39:52;36.15;;;18.30;;
75760;SDS011;64373;46.136;8.830;2024-03-08T11:42:24;36.97;;;18.05;;
75760;SDS011;64373;46.136;8.830;2024-03-08T11:44:51;36.50;;;18.35;;
75760;SDS011;64373;46.136;8.830;2024-03-08T11:47:17;31.80;;;18.02;;
75760;SDS011;64373;46.136;8.830;2024-03-08T11:49:43;35.42;;;18.40;;
75760;SDS011;64373;46.136;8.830;2024-03-08T11:52:13;33.35;;;18.08;;
75760;SDS011;64373;46.136;8.830;2024-03-08T11:54:42;31.98;;;17.88;;
75760;SDS011;64373;46.136;8.830;2024-03-08T11:57:17;33.30;;;17.40;;
75760;SDS011;64373;46.136;8.830;2024-03-08T11:59:49;36.33;;;18.88;;
75760;SDS011;64373;46.136;8.830;2024-03-08T12:02:16;36.58;;;18.55;;
75760;SDS011;64373;46.136;8.830;2024-03-08T12:04:41;35.38;;;18.90;;
75760;SDS011;64373;46.136;8.830;2024-03-08T12:07:09;38.17;;;20.52;;
75760;SDS011;64373;46.136;8.830;2024-03-08T12:09:36;39.05;;;19.40;;
75760;SDS011;64373;46.136;8.830;2024-03-08T12:12:02;38.22;;;20.08;;
75760;SDS011;64373;46.136;8.830;2024-03-08T12:14:32;38.05;;;20.08;;
75760;SDS011;64373;46.136;8.830;2024-03-08T12:16:58;38.60;;;19.58;;
75760;SDS011;64373;46.136;8.830;2024-03-08T12:19:27;40.10;;;20.23;;
75760;SDS011;64373;46.136;8.830;2024-03-08T12:21:53;40.47;;;20.10;;
75760;SDS011;64373;46.136;8.830;2024-03-08T12:24:19;38.10;;;20.10;;
75760;SDS011;64373;46.136;8.830;2024-03-08T12:26:46;36.10;;;18.75;;
75760;SDS011;64373;46.136;8.830;2024-03-08T12:31:56;36.28;;;19.27;;
75760;SDS011;64373;46.136;8.830;2024-03-08T12:34:25;37.65;;;20.70;;
75760;SDS011;64373;46.136;8.830;2024-03-08T12:36:53;38.85;;;20.50;;
75760;SDS011;64373;46.136;8.830;2024-03-08T12:39:19;35.70;;;19.23;;
75760;SDS011;64373;46.136;8.830;2024-03-08T12:41:55;33.45;;;17.42;;
75760;SDS011;64373;46.136;8.830;2024-03-08T12:44:22;29.35;;;15.07;;
75760;SDS011;64373;46.136;8.830;2024-03-08T12:46:47;27.73;;;14.95;;
75760;SDS011;64373;46.136;8.830;2024-03-08T12:49:13;29.30;;;14.50;;
75760;SDS011;64373;46.136;8.830;2024-03-08T12:51:43;28.30;;;14.13;;
75760;SDS011;64373;46.136;8.830;2024-03-08T12:54:09;25.83;;;14.63;;
75760;SDS011;64373;46.136;8.830;2024-03-08T12:56:35;27.20;;;13.73;;
75760;SDS011;64373;46.136;8.830;2024-03-08T12:59:06;33.55;;;18.23;;
75760;SDS011;64373;46.136;8.830;2024-03-08T13:01:35;34.13;;;18.52;;
75760;SDS011;64373;46.136;8.830;2024-03-08T13:04:05;38.60;;;18.88;;
75760;SDS011;64373;46.136;8.830;2024-03-08T13:06:32;37.45;;;18.95;;
75760;SDS011;64373;46.136;8.830;2024-03-08T13:08:58;42.42;;;18.98;;
75760;SDS011;64373;46.136;8.830;2024-03-08T13:11:30;38.10;;;19.27;;
75760;SDS011;64373;46.136;8.830;2024-03-08T13:13:55;35.20;;;19.52;;
75760;SDS011;64373;46.136;8.830;2024-03-08T13:16:22;36.00;;;18.40;;
75760;SDS011;64373;46.136;8.830;2024-03-08T13:18:48;37.75;;;19.85;;
75760;SDS011;64373;46.136;8.830;2024-03-08T13:21:14;33.67;;;18.88;;
75760;SDS011;64373;46.136;8.830;2024-03-08T13:23:40;33.85;;;17.40;;
75760;SDS011;64373;46.136;8.830;2024-03-08T13:26:11;32.95;;;18.45;;
75760;SDS011;64373;46.136;8.830;2024-03-08T13:28:43;31.60;;;16.75;;
75760;SDS011;64373;46.136;8.830;2024-03-08T13:31:13;32.55;;;17.80;;
75760;SDS011;64373;46.136;8.830;2024-03-08T13:33:40;35.03;;;18.67;;
75760;SDS011;64373;46.136;8.830;2024-03-08T13:36:07;30.20;;;16.33;;
75760;SDS011;64373;46.136;8.830;2024-03-08T13:38:45;31.05;;;17.25;;
75760;SDS011;64373;46.136;8.830;2024-03-08T13:41:11;33.55;;;18.17;;
75760;SDS011;64373;46.136;8.830;2024-03-08T13:43:39;30.75;;;16.23;;
75760;SDS011;64373;46.136;8.830;2024-03-08T13:46:05;30.63;;;16.00;;
75760;SDS011;64373;46.136;8.830;2024-03-08T13:48:32;28.48;;;16.30;;
75760;SDS011;64373;46.136;8.830;2024-03-08T13:50:58;31.10;;;16.88;;
75760;SDS011;64373;46.136;8.830;2024-03-08T13:53:25;30.45;;;16.77;;
75760;SDS011;64373;46.136;8.830;2024-03-08T13:55:51;30.77;;;16.27;;
75760;SDS011;64373;46.136;8.830;2024-03-08T13:58:17;27.20;;;14.00;;
75760;SDS011;64373;46.136;8.830;2024-03-08T14:00:42;27.52;;;14.05;;
75760;SDS011;64373;46.136;8.830;2024-03-08T14:03:11;23.02;;;12.15;;
75760;SDS011;64373;46.136;8.830;2024-03-08T14:05:40;20.80;;;12.20;;
75760;SDS011;64373;46.136;8.830;2024-03-08T14:08:08;24.50;;;14.10;;
75760;SDS011;64373;46.136;8.830;2024-03-08T14:10:34;26.00;;;14.77;;
75760;SDS011;64373;46.136;8.830;2024-03-08T14:13:02;28.13;;;15.30;;
75760;SDS011;64373;46.136;8.830;2024-03-08T14:15:33;28.40;;;14.10;;
75760;SDS011;64373;46.136;8.830;2024-03-08T14:18:07;28.85;;;15.30;;
75760;SDS011;64373;46.136;8.830;2024-03-08T14:20:33;27.20;;;14.85;;
75760;SDS011;64373;46.136;8.830;2024-03-08T14:22:58;30.08;;;15.95;;
75760;SDS011;64373;46.136;8.830;2024-03-08T14:25:24;28.65;;;14.27;;
75760;SDS011;64373;46.136;8.830;2024-03-08T14:27:50;27.15;;;14.63;;
75760;SDS011;64373;46.136;8.830;2024-03-08T14:30:19;27.10;;;13.70;;
75760;SDS011;64373;46.136;8.830;2024-03-08T14:32:58;23.60;;;13.43;;
75760;SDS011;64373;46.136;8.830;2024-03-08T14:35:25;25.05;;;13.05;;
75760;SDS011;64373;46.136;8.830;2024-03-08T14:37:51;25.75;;;13.43;;
75760;SDS011;64373;46.136;8.830;2024-03-08T14:40:17;24.95;;;14.07;;